Time;durP1;ratioP1;P1;durP2;ratioP2;P2;SDS_P1;SDS_P2;PMS_P1;PMS_P2;Temp;Humidity;BMP_temperature;BMP_pressure;BME280_temperature;BME280_humidity;BME280_pressure;Samples;Min_cycle;Max_cycle;Signal;HPM_P1;HPM_P2
2023/10/20 00:01:54;;;;;;;13.32;7.93;;;16.20;79.20;;;;;;5012742;28;20476;-72
2023/10/20 00:04:20;;;;;;;15.27;9.20;;;16.20;79.30;;;;;;5012404;28;20381;-72
2023/10/20 00:06:45;;;;;;;13.07;7.77;;;16.20;79.40;;;;;;5013079;28;20803;-73
2023/10/20 00:09:20;;;;;;;11.67;8.50;;;16.30;78.30;;;;;;5012542;28;20914;-72
2023/10/20 00:11:45;;;;;;;9.45;8.05;;;16.20;80.10;;;;;;5012747;28;20759;-73
2023/10/20 00:14:11;;;;;;;10.38;7.50;;;16.20;80.90;;;;;;5012365;28;20385;-74
2023/10/20 00:16:37;;;;;;;12.43;7.60;;;16.20;80.40;;;;;;5012381;28;20389;-74
2023/10/20 00:19:03;;;;;;;12.67;7.50;;;16.30;79.50;;;;;;5013002;28;20934;-73
2023/10/20 00:21:31;;;;;;;11.90;8.10;;;16.30;79.30;;;;;;5012345;28;20401;-73
2023/10/20 00:23:57;;;;;;;10.35;8.10;;;16.30;79.90;;;;;;5011953;28;20735;-73
2023/10/20 00:26:22;;;;;;;12.68;8.23;;;16.30;80.00;;;;;;5012692;28;20472;-72
2023/10/20 00:28:48;;;;;;;12.10;7.53;;;16.30;81.10;;;;;;5012395;28;20392;-73
2023/10/20 00:31:16;;;;;;;9.53;8.20;;;16.20;81.00;;;;;;5012022;28;20858;-73
2023/10/20 00:33:42;;;;;;;11.55;7.88;;;16.20;82.30;;;;;;5012275;28;20442;-72
2023/10/20 00:36:09;;;;;;;12.88;7.40;;;16.20;82.20;;;;;;5012466;28;20798;-74
2023/10/20 00:38:35;;;;;;;11.93;7.65;;;16.30;81.20;;;;;;5011167;28;20409;-73
2023/10/20 00:41:01;;;;;;;11.00;8.25;;;16.30;81.70;;;;;;5012110;28;20515;-72
2023/10/20 00:43:37;;;;;;;9.05;7.60;;;16.20;82.50;;;;;;5011800;28;20380;-72
2023/10/20 00:46:04;;;;;;;12.88;7.45;;;16.30;81.40;;;;;;5012427;28;20741;-73
2023/10/20 00:48:34;;;;;;;10.60;7.68;;;16.30;81.40;;;;;;5012180;28;20491;-73
2023/10/20 00:51:00;;;;;;;12.13;8.80;;;16.30;81.80;;;;;;5012160;28;20474;-73
2023/10/20 00:53:30;;;;;;;10.38;7.60;;;16.30;81.80;;;;;;5011958;28;20393;-72
2023/10/20 00:56:00;;;;;;;10.00;7.55;;;16.30;82.10;;;;;;5013849;28;20396;-72
2023/10/20 00:58:26;;;;;;;10.05;7.45;;;16.30;81.90;;;;;;5014104;28;20409;-72
2023/10/20 01:00:52;;;;;;;8.77;7.20;;;16.30;82.40;;;;;;5016053;28;20388;-72
2023/10/20 01:03:18;;;;;;;10.87;7.80;;;16.30;82.00;;;;;;5013345;28;20425;-72
2023/10/20 01:05:44;;;;;;;8.13;7.27;;;16.30;81.80;;;;;;5011767;28;20403;-73
2023/10/20 01:08:09;;;;;;;10.50;8.03;;;16.30;81.70;;;;;;5011685;28;20428;-74
2023/10/20 01:10:35;;;;;;;9.30;7.10;;;16.30;82.90;;;;;;5011583;28;20415;-73
2023/10/20 01:13:00;;;;;;;9.00;7.00;;;16.30;83.30;;;;;;5011547;28;20553;-73
2023/10/20 01:15:27;;;;;;;13.13;7.88;;;16.30;82.30;;;;;;5011665;28;20396;-73
2023/10/20 01:17:52;;;;;;;12.07;7.40;;;16.30;82.80;;;;;;5011165;28;20430;-73
2023/10/20 01:20:18;;;;;;;9.50;7.40;;;16.30;83.00;;;;;;5011226;28;20400;-73
2023/10/20 01:22:44;;;;;;;9.23;7.30;;;16.30;83.20;;;;;;5011331;28;20399;-72
2023/10/20 01:25:11;;;;;;;7.88;7.07;;;16.30;84.10;;;;;;4993564;28;20397;-72
2023/10/20 01:27:36;;;;;;;12.80;7.53;;;16.40;83.30;;;;;;5011272;28;20886;-72
2023/10/20 01:30:03;;;;;;;9.80;6.57;;;16.30;83.40;;;;;;5011380;28;20389;-72
2023/10/20 01:32:29;;;;;;;8.25;7.07;;;16.30;83.90;;;;;;5011331;28;20868;-73
2023/10/20 01:34:54;;;;;;;9.02;7.15;;;16.40;83.60;;;;;;5011004;28;20392;-72
2023/10/20 01:37:20;;;;;;;9.55;7.15;;;16.40;82.10;;;;;;4993474;28;20914;-73
2023/10/20 01:39:45;;;;;;;11.53;7.10;;;16.30;83.80;;;;;;5010913;28;20401;-73
2023/10/20 01:42:11;;;;;;;9.53;7.47;;;16.40;82.50;;;;;;5010995;28;20388;-73
2023/10/20 01:44:36;;;;;;;12.05;7.80;;;16.30;83.40;;;;;;5010788;28;20466;-72
2023/10/20 01:47:02;;;;;;;9.55;7.60;;;16.40;82.10;;;;;;5010974;28;20447;-71
2023/10/20 01:49:28;;;;;;;9.63;7.15;;;16.50;81.50;;;;;;5010630;28;20392;-72
2023/10/20 01:51:54;;;;;;;9.20;7.40;;;16.40;82.10;;;;;;5010927;28;20388;-72
2023/10/20 01:54:19;;;;;;;11.40;7.67;;;16.50;81.70;;;;;;5010479;28;20395;-72
2023/10/20 01:56:45;;;;;;;10.57;7.47;;;16.50;81.40;;;;;;5010847;28;20401;-72
2023/10/20 01:59:11;;;;;;;9.70;6.90;;;16.50;81.50;;;;;;5010764;28;20419;-71
2023/10/20 02:01:37;;;;;;;8.07;7.10;;;16.50;81.80;;;;;;5010781;28;20388;-72
2023/10/20 02:04:02;;;;;;;8.50;6.53;;;16.40;82.20;;;;;;5010821;28;20899;-72
2023/10/20 02:06:28;;;;;;;10.27;6.70;;;16.40;82.50;;;;;;5010741;28;20393;-72
2023/10/20 02:08:53;;;;;;;7.87;6.50;;;16.40;83.30;;;;;;5010705;28;20405;-72
2023/10/20 02:11:19;;;;;;;9.23;6.30;;;16.40;83.30;;;;;;5010720;28;20748;-72
2023/10/20 02:13:45;;;;;;;7.07;6.07;;;16.40;83.40;;;;;;5010479;28;20530;-73
2023/10/20 02:16:11;;;;;;;7.18;5.90;;;16.40;83.00;;;;;;5010605;28;20812;-72
2023/10/20 02:18:37;;;;;;;6.32;5.57;;;16.50;81.80;;;;;;5010444;28;20409;-72
2023/10/20 02:21:03;;;;;;;8.30;5.97;;;16.50;81.60;;;;;;5010253;28;20399;-73
2023/10/20 02:23:32;;;;;;;7.43;5.20;;;16.40;82.60;;;;;;5010323;28;20408;-74
2023/10/20 02:26:02;;;;;;;6.20;5.60;;;16.40;82.20;;;;;;5010759;28;20466;-73
2023/10/20 02:28:28;;;;;;;5.57;4.97;;;16.40;82.40;;;;;;5010619;28;20428;-72
2023/10/20 02:30:59;;;;;;;6.50;5.03;;;16.40;83.00;;;;;;4992766;28;20447;-72
2023/10/20 02:33:25;;;;;;;6.10;4.70;;;16.40;82.60;;;;;;5010496;28;21051;-73
2023/10/20 02:35:52;;;;;;;5.75;4.90;;;16.40;82.30;;;;;;5010420;28;20624;-72
2023/10/20 02:38:19;;;;;;;5.00;4.50;;;16.40;82.60;;;;;;5010294;28;20404;-72
2023/10/20 02:40:51;;;;;;;4.50;4.10;;;16.50;81.10;;;;;;5010310;28;20417;-73
2023/10/20 02:43:17;;;;;;;6.45;4.22;;;16.40;81.30;;;;;;5010342;28;20884;-73
2023/10/20 02:45:51;;;;;;;8.68;4.07;;;16.30;83.10;;;;;;5010360;28;20385;-73
2023/10/20 02:48:17;;;;;;;5.80;3.92;;;16.40;81.70;;;;;;5010219;28;20454;-73
2023/10/20 02:50:43;;;;;;;4.47;3.83;;;16.40;81.60;;;;;;5010270;28;20471;-73
2023/10/20 02:53:08;;;;;;;3.90;3.50;;;16.40;81.30;;;;;;5010154;28;20422;-73
2023/10/20 02:55:34;;;;;;;5.53;3.70;;;16.40;82.30;;;;;;5010669;28;20408;-73
2023/10/20 02:58:00;;;;;;;3.90;3.50;;;16.40;82.10;;;;;;5011459;28;20431;-73
2023/10/20 03:00:26;;;;;;;5.03;4.03;;;16.40;81.80;;;;;;5011175;28;20381;-73
2023/10/20 03:02:53;;;;;;;5.28;4.05;;;16.40;81.20;;;;;;5014333;28;20389;-73
2023/10/20 03:05:20;;;;;;;5.07;3.55;;;16.30;81.80;;;;;;5013963;28;20892;-74
2023/10/20 03:07:49;;;;;;;4.25;3.30;;;16.30;81.50;;;;;;5014332;28;20397;-73
2023/10/20 03:10:15;;;;;;;4.20;3.00;;;16.30;81.60;;;;;;5015195;28;20755;-73
2023/10/20 03:12:40;;;;;;;5.87;3.50;;;16.30;81.60;;;;;;5013876;28;20385;-73
2023/10/20 03:15:08;;;;;;;4.60;3.30;;;16.30;81.20;;;;;;5013594;28;20389;-73
2023/10/20 03:17:33;;;;;;;3.40;3.10;;;16.40;80.70;;;;;;5013524;28;20396;-72
2023/10/20 03:19:59;;;;;;;5.47;2.80;;;16.40;80.60;;;;;;5013741;28;20396;-73
2023/10/20 03:22:24;;;;;;;4.70;3.17;;;16.40;79.50;;;;;;5016696;28;20420;-72
2023/10/20 03:24:50;;;;;;;3.30;3.00;;;16.30;80.20;;;;;;5017065;28;20492;-73
2023/10/20 03:27:15;;;;;;;8.67;3.33;;;16.30;80.60;;;;;;5017365;28;20929;-74
2023/10/20 03:29:41;;;;;;;3.20;2.90;;;16.40;78.60;;;;;;5017444;28;20444;-73
2023/10/20 03:32:07;;;;;;;5.40;3.10;;;16.40;78.50;;;;;;5017157;28;20385;-74
2023/10/20 03:34:33;;;;;;;4.70;3.00;;;16.30;79.00;;;;;;5017891;28;20396;-74
2023/10/20 03:37:00;;;;;;;7.55;3.40;;;16.30;78.80;;;;;;5017222;28;20913;-73
2023/10/20 03:39:27;;;;;;;3.60;2.78;;;16.40;77.80;;;;;;5016635;28;20774;-73
2023/10/20 03:41:53;;;;;;;3.40;3.00;;;16.30;78.20;;;;;;5017531;28;20385;-74
2023/10/20 03:44:22;;;;;;;5.80;2.72;;;16.40;76.70;;;;;;5017481;28;20881;-73
2023/10/20 03:46:56;;;;;;;3.88;2.80;;;16.40;76.50;;;;;;5017623;28;20499;-74
2023/10/20 03:49:22;;;;;;;4.28;2.85;;;16.40;76.30;;;;;;5017316;28;20581;-74
2023/10/20 03:51:50;;;;;;;3.57;3.10;;;16.40;76.30;;;;;;5017659;28;20995;-72
2023/10/20 03:54:17;;;;;;;3.03;2.73;;;16.50;75.70;;;;;;5017282;28;20396;-72
2023/10/20 03:56:42;;;;;;;4.20;3.20;;;16.50;74.90;;;;;;4999531;28;20389;-72
2023/10/20 03:59:13;;;;;;;4.63;3.07;;;16.50;74.80;;;;;;5016240;28;20405;-74
2023/10/20 04:01:39;;;;;;;2.78;2.50;;;16.50;74.70;;;;;;5017388;28;20381;-72
2023/10/20 04:04:11;;;;;;;4.78;2.70;;;16.50;74.70;;;;;;5015904;28;20416;-72
2023/10/20 04:06:37;;;;;;;3.00;2.77;;;16.60;73.90;;;;;;5014838;28;20422;-72
2023/10/20 04:09:08;;;;;;;2.55;2.35;;;16.60;74.30;;;;;;5014777;28;20384;-73
2023/10/20 04:11:34;;;;;;;5.60;2.80;;;16.60;73.60;;;;;;5015284;28;20890;-73
2023/10/20 04:14:01;;;;;;;4.95;3.30;;;16.60;74.00;;;;;;5015236;28;20388;-74
2023/10/20 04:16:27;;;;;;;3.88;2.80;;;16.60;73.50;;;;;;5016109;28;20391;-73
2023/10/20 04:18:53;;;;;;;3.05;2.83;;;16.60;74.70;;;;;;5015962;28;20413;-73
2023/10/20 04:21:19;;;;;;;4.07;2.83;;;16.60;75.10;;;;;;5015767;28;20856;-74
2023/10/20 04:23:44;;;;;;;2.80;2.60;;;16.60;74.70;;;;;;5015808;28;20495;-73
2023/10/20 04:26:20;;;;;;;3.17;2.97;;;16.60;75.00;;;;;;5016285;28;20388;-74
2023/10/20 04:28:47;;;;;;;3.92;2.80;;;16.70;72.70;;;;;;5014967;28;20388;-74
2023/10/20 04:58:13;;;;;;;5.33;2.70;;;16.60;72.90;;;;;;4974780;28;20429;-74
2023/10/20 05:00:41;;;;;;;3.10;2.30;;;16.70;71.20;;;;;;5014784;28;20420;-73
2023/10/20 05:03:16;;;;;;;6.80;2.70;;;16.80;69.90;;;;;;4997693;28;20396;-74
2023/10/20 05:05:53;;;;;;;3.58;2.30;;;16.60;71.70;;;;;;5016083;28;20408;-73
2023/10/20 05:08:22;;;;;;;4.00;2.37;;;16.60;72.30;;;;;;5014470;28;20376;-73
2023/10/20 05:10:49;;;;;;;5.10;3.40;;;16.60;73.50;;;;;;5014194;28;20775;-72
2023/10/20 05:13:16;;;;;;;2.80;2.50;;;16.40;76.50;;;;;;5015979;28;20393;-73
2023/10/20 05:15:43;;;;;;;2.90;2.10;;;16.40;76.30;;;;;;5016549;28;20389;-74
2023/10/20 05:18:11;;;;;;;2.90;2.60;;;16.40;76.70;;;;;;5015813;28;20401;-73
2023/10/20 05:20:43;;;;;;;4.80;2.72;;;16.40;77.00;;;;;;5016180;28;20471;-73
2023/10/20 05:23:10;;;;;;;3.70;2.78;;;16.20;79.50;;;;;;5016380;28;20409;-74
2023/10/20 05:25:36;;;;;;;4.47;2.50;;;16.20;81.20;;;;;;5013807;28;20424;-74
2023/10/20 05:28:02;;;;;;;2.67;2.47;;;16.10;82.20;;;;;;5015335;28;20400;-74
2023/10/20 05:30:28;;;;;;;3.80;2.30;;;16.10;82.50;;;;;;5014703;28;20384;-74
2023/10/20 05:32:54;;;;;;;3.40;2.80;;;16.10;83.10;;;;;;5014397;28;20832;-72
2023/10/20 05:35:20;;;;;;;2.70;2.47;;;16.00;84.10;;;;;;4995597;28;20408;-75
2023/10/20 05:37:45;;;;;;;3.08;2.65;;;16.00;85.40;;;;;;5013382;28;20472;-73
2023/10/20 05:40:13;;;;;;;2.70;2.50;;;16.00;85.70;;;;;;5013180;28;20472;-72
2023/10/20 05:42:39;;;;;;;2.85;1.98;;;16.10;85.20;;;;;;5011632;28;20428;-73
2023/10/20 05:45:17;;;;;;;2.53;2.33;;;16.20;83.20;;;;;;5011626;28;20416;-73
2023/10/20 05:47:43;;;;;;;3.28;2.50;;;16.30;80.70;;;;;;5011954;28;20467;-73
2023/10/20 05:50:09;;;;;;;2.80;2.50;;;16.20;82.20;;;;;;5012260;28;20393;-73
2023/10/20 05:52:35;;;;;;;3.10;2.80;;;16.10;84.60;;;;;;5013065;28;20409;-73
2023/10/20 05:55:03;;;;;;;5.50;2.97;;;16.00;87.50;;;;;;5012776;28;20389;-73
2023/10/20 05:57:31;;;;;;;2.80;2.47;;;16.00;88.60;;;;;;5013049;28;20760;-73
2023/10/20 06:00:00;;;;;;;5.22;2.65;;;16.00;89.40;;;;;;5012948;28;20495;-73
2023/10/20 06:02:26;;;;;;;2.40;2.20;;;16.10;88.40;;;;;;5012692;28;20393;-73
2023/10/20 06:04:51;;;;;;;2.78;2.58;;;16.20;87.00;;;;;;5013331;28;20404;-73
2023/10/20 06:07:17;;;;;;;4.63;3.42;;;16.30;86.00;;;;;;5014135;28;20396;-74
2023/10/20 06:09:42;;;;;;;7.20;3.20;;;16.50;83.10;;;;;;5012387;28;20787;-73
2023/10/20 06:12:10;;;;;;;5.50;3.73;;;16.60;81.30;;;;;;5011962;28;20384;-73
2023/10/20 06:14:36;;;;;;;3.95;3.55;;;16.50;82.20;;;;;;5011990;28;20399;-72
2023/10/20 06:17:02;;;;;;;6.10;3.63;;;16.40;84.30;;;;;;5011319;28;20852;-72
2023/10/20 06:19:28;;;;;;;6.75;3.30;;;16.40;83.80;;;;;;5011727;28;20435;-73
2023/10/20 06:21:55;;;;;;;5.38;4.00;;;16.40;85.30;;;;;;5011734;28;20403;-74
2023/10/20 06:24:21;;;;;;;3.80;3.40;;;16.40;84.90;;;;;;5012402;28;20380;-73
2023/10/20 06:26:47;;;;;;;5.63;3.63;;;16.40;85.50;;;;;;5012479;28;20901;-72
2023/10/20 06:29:42;;;;;;;5.53;3.30;;;16.40;85.80;;;;;;4998706;28;20481;-74
2023/10/20 06:34:40;;;;;;;5.15;3.83;;;16.20;87.40;;;;;;5005994;28;20412;-73
2023/10/20 06:37:09;;;;;;;9.83;4.57;;;16.20;88.40;;;;;;5012588;28;20483;-72
2023/10/20 06:39:38;;;;;;;10.00;4.60;;;16.10;89.10;;;;;;5015934;28;20818;-73
2023/10/20 06:42:07;;;;;;;12.68;5.82;;;16.10;89.70;;;;;;4984977;28;20395;-72
2023/10/20 06:44:34;;;;;;;12.20;6.40;;;16.00;91.40;;;;;;5002906;28;20525;-72
2023/10/20 06:47:00;;;;;;;8.77;5.97;;;15.90;93.90;;;;;;5000688;28;20765;-72
2023/10/20 06:49:26;;;;;;;11.48;6.75;;;15.90;94.00;;;;;;4996264;28;20421;-72
2023/10/20 06:51:51;;;;;;;7.47;5.70;;;15.80;96.80;;;;;;4995974;28;20387;-74
2023/10/20 06:54:17;;;;;;;9.05;6.57;;;15.80;97.70;;;;;;4994482;28;20436;-72
2023/10/20 06:56:44;;;;;;;9.77;6.60;;;15.90;96.00;;;;;;4997229;28;20413;-73
2023/10/20 06:59:13;;;;;;;12.43;7.30;;;15.70;98.50;;;;;;5009206;28;21022;-73
2023/10/20 07:01:40;;;;;;;11.15;7.10;;;15.70;99.90;;;;;;4994218;28;20406;-73
2023/10/20 07:04:08;;;;;;;9.48;6.28;;;15.50;99.90;;;;;;5005612;28;20767;-72
2023/10/20 07:06:37;;;;;;;12.50;6.10;;;15.70;99.90;;;;;;5013310;28;20380;-73
2023/10/20 07:09:14;;;;;;;8.50;6.50;;;15.80;99.90;;;;;;4991638;28;20422;-73
2023/10/20 07:11:41;;;;;;;9.15;6.10;;;15.70;99.90;;;;;;4993350;28;20410;-73
2023/10/20 07:14:07;;;;;;;8.57;6.43;;;15.70;99.90;;;;;;4993621;28;20477;-74
2023/10/20 07:16:33;;;;;;;11.68;7.15;;;15.70;99.90;;;;;;5005399;28;21592;-74
2023/10/20 07:19:00;;;;;;;10.55;6.57;;;15.70;99.90;;;;;;5008938;28;20418;-74
2023/10/20 07:21:26;;;;;;;11.77;6.23;;;15.80;99.90;;;;;;5005991;28;20397;-72
2023/10/20 07:23:52;;;;;;;12.77;7.70;;;15.80;99.30;;;;;;5012591;28;20467;-72
2023/10/20 07:26:18;;;;;;;9.47;7.00;;;15.70;99.90;;;;;;4999135;28;20448;-74
2023/10/20 07:28:44;;;;;;;9.10;6.20;;;15.60;99.90;;;;;;5006826;28;20920;-75
2023/10/20 07:31:12;;;;;;;12.93;7.25;;;15.60;99.90;;;;;;5006518;28;20406;-73
2023/10/20 07:33:37;;;;;;;9.35;6.63;;;15.70;99.90;;;;;;5011281;28;20880;-73
2023/10/20 07:36:05;;;;;;;11.65;7.05;;;15.80;99.90;;;;;;5013993;28;20419;-74
2023/10/20 07:38:30;;;;;;;11.75;7.80;;;15.80;99.90;;;;;;4998278;28;20508;-73
2023/10/20 07:40:56;;;;;;;11.65;7.65;;;15.70;99.90;;;;;;5002123;28;20535;-73
2023/10/20 07:43:21;;;;;;;11.30;8.47;;;15.60;99.90;;;;;;5012677;28;20425;-73
2023/10/20 07:45:49;;;;;;;13.33;8.10;;;15.60;99.90;;;;;;4995915;28;20405;-73
2023/10/20 07:48:15;;;;;;;12.23;7.87;;;15.70;99.90;;;;;;4992474;28;20404;-74
2023/10/20 07:50:40;;;;;;;10.50;7.97;;;15.90;99.90;;;;;;4993065;28;20395;-72
2023/10/20 07:53:07;;;;;;;11.02;8.40;;;15.90;99.90;;;;;;4993035;28;20405;-73
2023/10/20 07:55:33;;;;;;;12.97;10.10;;;15.80;99.90;;;;;;4993121;28;20422;-74
2023/10/20 07:57:58;;;;;;;17.13;9.40;;;15.70;99.90;;;;;;5009156;28;20518;-73
2023/10/20 08:00:24;;;;;;;12.73;8.33;;;15.60;99.90;;;;;;5012433;28;20398;-76
2023/10/20 08:02:50;;;;;;;13.13;9.35;;;15.60;99.90;;;;;;5009376;28;21372;-73
2023/10/20 08:05:16;;;;;;;12.90;8.63;;;15.70;99.90;;;;;;5011664;28;20430;-74
2023/10/20 08:07:42;;;;;;;13.20;9.63;;;15.90;99.90;;;;;;5012441;28;20388;-73
2023/10/20 08:10:08;;;;;;;9.88;8.30;;;15.90;99.90;;;;;;5013884;28;20899;-72
2023/10/20 08:12:33;;;;;;;15.75;10.20;;;15.90;99.90;;;;;;5013331;28;20483;-73
2023/10/20 08:14:59;;;;;;;14.53;9.20;;;15.80;99.90;;;;;;4994911;28;20457;-75
2023/10/20 08:17:25;;;;;;;14.70;10.13;;;15.70;99.90;;;;;;4994382;28;20405;-73
2023/10/20 08:19:50;;;;;;;14.90;10.43;;;15.70;99.90;;;;;;4976385;28;20422;-74
2023/10/20 08:22:16;;;;;;;12.77;9.13;;;15.70;99.90;;;;;;4993620;28;20781;-73
2023/10/20 08:24:42;;;;;;;13.68;8.70;;;15.80;99.90;;;;;;4993083;28;20397;-74
2023/10/20 08:27:07;;;;;;;11.85;8.48;;;15.90;99.90;;;;;;4992678;28;20390;-74
2023/10/20 08:29:33;;;;;;;14.43;8.90;;;15.70;99.90;;;;;;4992040;28;20472;-74
2023/10/20 08:31:59;;;;;;;11.60;8.60;;;15.80;99.90;;;;;;4992395;28;20414;-74
2023/10/20 08:34:24;;;;;;;14.18;9.30;;;15.70;99.90;;;;;;4997162;28;20487;-74
2023/10/20 08:36:50;;;;;;;10.20;7.82;;;15.60;99.90;;;;;;5004658;28;20424;-74
2023/10/20 08:39:24;;;;;;;11.70;8.80;;;15.60;99.90;;;;;;5012430;28;20770;-74
2023/10/20 08:41:50;;;;;;;10.40;7.43;;;15.60;99.90;;;;;;5002360;28;20405;-74
2023/10/20 08:44:17;;;;;;;11.15;8.23;;;15.60;99.90;;;;;;5009181;28;20536;-74
2023/10/20 08:46:44;;;;;;;9.02;7.80;;;15.60;99.90;;;;;;4995994;28;20452;-73
2023/10/20 08:49:11;;;;;;;10.65;8.20;;;15.60;99.90;;;;;;5010567;28;20760;-74
2023/10/20 08:51:38;;;;;;;9.90;8.30;;;15.60;99.90;;;;;;4978236;28;20406;-74
2023/10/20 08:54:07;;;;;;;10.65;6.90;;;15.70;99.90;;;;;;4993768;28;20445;-75
2023/10/20 08:56:32;;;;;;;8.80;7.00;;;15.80;99.90;;;;;;4998729;28;20407;-74
2023/10/20 08:58:58;;;;;;;7.15;6.25;;;15.90;99.90;;;;;;4994268;28;20430;-74
2023/10/20 09:01:24;;;;;;;8.67;6.80;;;16.00;99.90;;;;;;4995307;28;20430;-74
2023/10/20 09:03:52;;;;;;;9.70;6.95;;;16.00;99.90;;;;;;4992387;28;20406;-75
2023/10/20 09:06:17;;;;;;;8.57;6.00;;;16.00;99.90;;;;;;4992628;28;20461;-74
2023/10/20 09:08:47;;;;;;;11.13;6.33;;;16.10;99.90;;;;;;4992611;28;20446;-75
2023/10/20 09:11:13;;;;;;;8.90;6.40;;;16.10;99.90;;;;;;4992653;28;20410;-75
2023/10/20 09:13:40;;;;;;;8.43;6.90;;;16.00;99.90;;;;;;4974733;28;20391;-75
2023/10/20 09:16:11;;;;;;;11.63;7.15;;;16.00;99.90;;;;;;4993069;28;20937;-75
2023/10/20 09:18:43;;;;;;;9.10;6.88;;;15.90;99.90;;;;;;4992416;28;20410;-75
2023/10/20 09:21:09;;;;;;;10.27;7.32;;;15.80;99.90;;;;;;4975327;28;20410;-75
2023/10/20 09:23:35;;;;;;;14.82;7.90;;;15.80;99.90;;;;;;4992437;28;20382;-75
2023/10/20 09:26:00;;;;;;;9.82;6.70;;;15.80;99.90;;;;;;4992471;28;20441;-75
2023/10/20 09:28:27;;;;;;;9.82;6.93;;;15.90;99.90;;;;;;4992099;28;20391;-75
2023/10/20 09:30:54;;;;;;;8.90;7.20;;;16.00;99.90;;;;;;4992052;28;20386;-75
2023/10/20 09:33:21;;;;;;;9.27;6.90;;;16.10;99.90;;;;;;4992066;28;20469;-75
2023/10/20 09:35:46;;;;;;;9.57;7.03;;;16.00;99.90;;;;;;4993115;28;20394;-75
2023/10/20 09:38:14;;;;;;;8.68;7.05;;;16.20;99.90;;;;;;4992496;28;20422;-75
2023/10/20 09:40:42;;;;;;;12.63;7.97;;;16.20;99.80;;;;;;4992394;28;20853;-75
2023/10/20 09:43:31;;;;;;;10.90;7.73;;;16.10;99.90;;;;;;4994006;28;20399;-75
2023/10/20 09:46:14;;;;;;;12.40;8.40;;;16.20;99.90;;;;;;4993789;28;20477;-75
2023/10/20 09:48:41;;;;;;;12.57;8.55;;;16.30;99.90;;;;;;4993904;28;20402;-75
2023/10/20 09:51:08;;;;;;;12.50;8.60;;;16.30;99.90;;;;;;4992432;28;20387;-75
2023/10/20 09:53:34;;;;;;;11.15;7.47;;;16.40;99.90;;;;;;4992118;28;20394;-74
2023/10/20 09:56:01;;;;;;;10.30;6.20;;;16.50;98.60;;;;;;4992062;28;20399;-74
2023/10/20 09:58:26;;;;;;;13.38;7.38;;;16.70;95.00;;;;;;4993440;28;20406;-75
2023/10/20 10:00:55;;;;;;;12.50;7.00;;;16.70;92.90;;;;;;4993331;28;20469;-74
2023/10/20 10:03:48;;;;;;;9.85;6.80;;;16.70;91.10;;;;;;4993446;28;20498;-74
2023/10/20 10:06:16;;;;;;;11.88;7.65;;;16.70;93.10;;;;;;4993344;28;20911;-75
2023/10/20 10:08:45;;;;;;;12.45;7.60;;;16.50;94.70;;;;;;4992466;28;20521;-75
2023/10/20 10:11:27;;;;;;;10.48;6.53;;;16.50;95.90;;;;;;4991707;28;20773;-74
2023/10/20 10:13:54;;;;;;;13.00;7.18;;;16.50;96.90;;;;;;4992178;28;20410;-74
2023/10/20 10:16:21;;;;;;;10.30;7.00;;;16.40;98.90;;;;;;4992996;28;20438;-75
2023/10/20 10:18:48;;;;;;;9.85;6.60;;;16.50;97.10;;;;;;4993259;28;20918;-75
2023/10/20 10:21:31;;;;;;;12.43;7.40;;;16.50;97.80;;;;;;4993358;28;20414;-74
2023/10/20 10:24:28;;;;;;;9.50;7.00;;;16.60;99.10;;;;;;4991963;28;20378;-75
2023/10/20 10:27:01;;;;;;;10.50;6.60;;;16.60;99.00;;;;;;4972618;28;20395;-75
2023/10/20 10:29:47;;;;;;;8.20;7.00;;;16.70;96.90;;;;;;4992299;28;20387;-75
2023/10/20 10:32:13;;;;;;;9.05;6.50;;;16.80;96.50;;;;;;4992414;28;20394;-75
2023/10/20 10:34:45;;;;;;;8.30;6.17;;;17.10;89.00;;;;;;4992274;28;20405;-75
2023/10/20 10:37:12;;;;;;;14.32;8.05;;;17.30;84.80;;;;;;4974316;28;20497;-74
2023/10/20 10:39:37;;;;;;;10.70;8.05;;;17.40;82.40;;;;;;4993029;28;20415;-74
2023/10/20 10:42:04;;;;;;;11.30;7.15;;;17.30;84.40;;;;;;4976027;28;20827;-74
2023/10/20 10:44:35;;;;;;;10.32;6.90;;;17.20;83.80;;;;;;4994167;28;20386;-75
2023/10/20 10:47:03;;;;;;;12.02;6.90;;;17.30;85.00;;;;;;4993017;28;20440;-74
2023/10/20 10:49:30;;;;;;;8.60;6.75;;;17.40;82.60;;;;;;4974452;28;20482;-75
2023/10/20 10:51:56;;;;;;;10.30;7.43;;;17.50;81.20;;;;;;4997882;28;20903;-75
2023/10/20 10:54:23;;;;;;;8.20;6.45;;;17.60;78.40;;;;;;4983159;28;20517;-74
2023/10/20 10:56:49;;;;;;;9.18;6.95;;;17.60;76.30;;;;;;5002826;28;20401;-74
2023/10/20 10:59:15;;;;;;;8.00;6.23;;;17.50;78.20;;;;;;4994976;28;20913;-75
2023/10/20 11:01:41;;;;;;;10.00;7.37;;;17.30;79.70;;;;;;4995059;28;20491;-74
2023/10/20 11:04:09;;;;;;;8.77;7.07;;;17.20;78.10;;;;;;4989752;28;20747;-74
2023/10/20 11:06:38;;;;;;;7.93;6.40;;;17.10;81.20;;;;;;5011482;28;20428;-73
2023/10/20 11:09:11;;;;;;;18.77;12.70;;;17.20;79.80;;;;;;5011520;28;20851;-73
2023/10/20 11:11:46;;;;;;;8.25;6.65;;;17.10;83.20;;;;;;5005370;28;20409;-74
2023/10/20 11:14:12;;;;;;;9.63;7.03;;;17.10;82.20;;;;;;4993467;28;20460;-73
2023/10/20 11:16:38;;;;;;;9.48;6.95;;;17.10;82.90;;;;;;4993609;28;20399;-74
2023/10/20 11:19:04;;;;;;;11.80;8.30;;;17.00;84.80;;;;;;4995023;28;20402;-74
2023/10/20 11:21:44;;;;;;;10.32;7.22;;;17.10;83.90;;;;;;4993450;28;20461;-73
2023/10/20 11:24:10;;;;;;;8.93;6.28;;;17.20;79.70;;;;;;5006532;28;20398;-73
2023/10/20 11:26:36;;;;;;;9.10;6.50;;;17.30;78.60;;;;;;5004126;28;20835;-75
2023/10/20 11:29:04;;;;;;;10.88;6.80;;;17.30;79.90;;;;;;4992722;28;20406;-74
2023/10/20 11:31:29;;;;;;;9.30;7.37;;;17.50;77.70;;;;;;5000203;28;20487;-73
2023/10/20 11:33:55;;;;;;;10.53;6.50;;;17.40;76.70;;;;;;4992098;28;20489;-72
2023/10/20 11:36:20;;;;;;;9.32;6.95;;;17.40;77.80;;;;;;5007779;28;20864;-73
2023/10/20 11:38:46;;;;;;;11.68;7.32;;;17.20;80.20;;;;;;5008970;28;20452;-73
2023/10/20 11:41:12;;;;;;;10.83;8.20;;;17.20;83.30;;;;;;5009984;28;20401;-73
2023/10/20 11:43:37;;;;;;;9.50;7.45;;;17.00;85.20;;;;;;4999139;28;20447;-73
2023/10/20 11:46:10;;;;;;;12.05;7.68;;;16.90;87.10;;;;;;5012845;28;20377;-73
2023/10/20 11:48:35;;;;;;;12.83;8.50;;;16.90;87.80;;;;;;5012481;28;20393;-77
2023/10/20 11:51:01;;;;;;;11.13;7.67;;;16.90;87.90;;;;;;5012821;28;20388;-75
2023/10/20 11:53:27;;;;;;;18.42;10.07;;;16.80;90.10;;;;;;5013025;28;20388;-76
2023/10/20 11:55:52;;;;;;;11.90;8.33;;;16.60;93.70;;;;;;4995458;28;20393;-76
2023/10/20 11:58:18;;;;;;;15.40;8.80;;;16.50;95.30;;;;;;5015434;28;20412;-73
2023/10/20 12:00:44;;;;;;;13.30;8.45;;;16.50;96.60;;;;;;5003788;28;20392;-73
2023/10/20 12:03:09;;;;;;;10.85;8.10;;;16.50;96.30;;;;;;4995063;28;20441;-72
2023/10/20 12:05:39;;;;;;;12.20;8.70;;;16.40;98.10;;;;;;4995022;28;20402;-73
2023/10/20 12:08:05;;;;;;;13.57;8.20;;;16.40;99.70;;;;;;5006059;28;20460;-73
2023/10/20 12:10:31;;;;;;;14.07;9.30;;;16.30;99.90;;;;;;5011239;28;20871;-75
2023/10/20 12:13:02;;;;;;;16.63;9.55;;;16.30;99.90;;;;;;5013032;28;20400;-74
2023/10/20 12:15:29;;;;;;;10.63;8.00;;;16.30;99.90;;;;;;5007639;28;20563;-76
2023/10/20 12:17:55;;;;;;;12.00;7.60;;;16.30;99.90;;;;;;4995403;28;20425;-75
2023/10/20 12:20:21;;;;;;;13.23;8.40;;;16.20;99.90;;;;;;4993512;28;20399;-75
2023/10/20 12:22:46;;;;;;;12.50;7.90;;;16.60;97.60;;;;;;4994182;28;20497;-76
2023/10/20 12:25:12;;;;;;;15.00;8.00;;;16.50;98.50;;;;;;5001897;28;20396;-75
2023/10/20 12:27:37;;;;;;;13.40;8.90;;;16.40;97.60;;;;;;5001999;28;20421;-75
2023/10/20 12:30:04;;;;;;;11.27;8.15;;;16.30;99.90;;;;;;5003244;28;20401;-75
2023/10/20 12:32:29;;;;;;;8.95;7.40;;;16.30;99.90;;;;;;5000613;28;20422;-75
2023/10/20 12:34:55;;;;;;;9.73;7.13;;;16.30;98.80;;;;;;5002239;28;20387;-75
2023/10/20 12:37:21;;;;;;;13.25;7.85;;;16.30;99.50;;;;;;5002432;28;20395;-75
2023/10/20 12:39:46;;;;;;;12.25;7.78;;;16.30;99.10;;;;;;5003746;28;20445;-75
2023/10/20 12:42:12;;;;;;;14.40;8.30;;;16.20;99.30;;;;;;5006298;28;20831;-73
2023/10/20 12:44:38;;;;;;;10.73;7.50;;;16.20;98.20;;;;;;5006368;28;20391;-75
2023/10/20 12:47:05;;;;;;;12.77;8.70;;;16.20;97.70;;;;;;5004808;28;20395;-74
2023/10/20 12:49:31;;;;;;;8.50;6.57;;;16.30;98.30;;;;;;4996122;28;20502;-76
2023/10/20 12:51:57;;;;;;;9.25;6.10;;;16.30;95.10;;;;;;4994819;28;20598;-76
2023/10/20 12:54:23;;;;;;;12.33;6.30;;;16.50;90.60;;;;;;4994071;28;20394;-77
2023/10/20 12:56:49;;;;;;;9.80;6.70;;;16.60;86.00;;;;;;4993904;28;20406;-76
2023/10/20 12:59:14;;;;;;;9.30;6.47;;;16.60;84.90;;;;;;4993776;28;20406;-76
2023/10/20 13:01:40;;;;;;;9.97;7.30;;;16.60;85.00;;;;;;4975514;28;20395;-76
2023/10/20 13:04:07;;;;;;;8.43;6.55;;;16.60;85.40;;;;;;4993060;28;20417;-75
2023/10/20 13:06:33;;;;;;;9.43;7.13;;;16.70;83.40;;;;;;4992463;28;20437;-75
2023/10/20 13:08:58;;;;;;;8.20;6.70;;;16.70;83.40;;;;;;4992697;28;20429;-77
2023/10/20 13:11:24;;;;;;;12.77;8.60;;;16.70;83.10;;;;;;4992166;28;20397;-74
2023/10/20 13:13:50;;;;;;;9.90;7.78;;;16.60;85.40;;;;;;4992354;28;20747;-75